Hermansville, Michigan
Current Conditions -  °F | °C
As of 10:15 PM on Tuesday 25 Nov 2014 (Local Time) from KESC Reporting Station
Overcast Overcast  
Wind Chill:   Ceiling: 3100
Heat Index: 10°   Visibility: 10mi
Dew Point:   Wind: 5mph
Humidity: 62%   Direction: 290°WNW
Pressure: 30.13"   Gusts: NA
Location:  45.71°N, 87.6°W
Report Text: KESC 260415Z AUTO 29004KT 10SM OVC031 M12/M18 A3013 RMK AO1
Loading
Personal Weather Stations






























Interactive Weather Map New forecast layout! Learn more

10-Day Weather Forecast

Advertisements
Track Severe Weather on mobile